Time;durP1;ratioP1;P1;durP2;ratioP2;P2;SDS_P1;SDS_P2;PMS_P1;PMS_P2;Temp;Humidity;BMP_temperature;BMP_pressure;BME280_temperature;BME280_humidity;BME280_pressure;Samples;Min_cycle;Max_cycle;Signal;HPM_P1;HPM_P2
2021/08/18 00:01:53;;;;;;;17.02;8.57;;;;;;;14.90;100.00;101512.81;2615884;36;20165;-62
2021/08/18 00:04:21;;;;;;;13.57;8.10;;;;;;;14.98;100.00;101514.78;2614802;31;20701;-62
2021/08/18 00:06:52;;;;;;;13.15;7.78;;;;;;;15.01;100.00;101525.31;2615728;31;20130;-63
2021/08/18 00:09:20;;;;;;;14.13;6.13;;;;;;;15.03;100.00;101516.03;2616011;31;20081;-62
2021/08/18 00:11:48;;;;;;;11.93;6.93;;;;;;;15.00;100.00;101513.63;2616692;36;20165;-62
2021/08/18 00:14:16;;;;;;;13.00;6.63;;;;;;;14.92;100.00;101513.50;2615625;36;20113;-62
2021/08/18 00:16:46;;;;;;;11.35;5.72;;;;;;;14.92;100.00;101518.09;2615874;36;20125;-62
2021/08/18 00:19:14;;;;;;;13.80;5.93;;;;;;;14.91;100.00;101509.06;2616193;36;20053;-62
2021/08/18 00:21:43;;;;;;;10.60;5.37;;;;;;;14.94;100.00;101516.06;2616198;36;20527;-62
2021/08/18 00:24:13;;;;;;;8.25;5.13;;;;;;;14.89;100.00;101520.06;2615658;36;20410;-62
2021/08/18 00:26:42;;;;;;;13.05;6.22;;;;;;;15.01;100.00;101514.47;2615726;36;20579;-62
2021/08/18 00:29:10;;;;;;;10.15;5.78;;;;;;;14.97;100.00;101513.94;2616574;36;20049;-62
2021/08/18 00:31:38;;;;;;;8.33;5.50;;;;;;;14.97;100.00;101521.19;2615936;36;20117;-62
2021/08/18 00:34:07;;;;;;;7.90;4.55;;;;;;;14.99;100.00;101520.03;2614564;36;20307;-62
2021/08/18 00:36:35;;;;;;;12.50;4.82;;;;;;;14.95;100.00;101521.34;2615925;36;20046;-62
2021/08/18 00:39:03;;;;;;;11.25;5.05;;;;;;;14.99;100.00;101514.63;2616131;31;20137;-63
2021/08/18 00:41:34;;;;;;;9.55;4.63;;;;;;;15.03;100.00;101516.03;2615686;31;20027;-62
2021/08/18 00:44:02;;;;;;;7.45;4.65;;;;;;;14.95;100.00;101502.38;2615780;36;20153;-63
2021/08/18 00:46:31;;;;;;;9.60;5.25;;;;;;;15.04;100.00;101514.16;2615957;36;20110;-62
2021/08/18 00:48:59;;;;;;;9.65;5.05;;;;;;;15.00;100.00;101513.63;2615815;36;20169;-62
2021/08/18 00:51:27;;;;;;;10.05;4.68;;;;;;;15.01;100.00;101515.31;2616088;36;20117;-62
2021/08/18 00:53:55;;;;;;;8.20;4.55;;;;;;;14.96;100.00;101509.50;2616010;36;20130;-62
2021/08/18 00:56:23;;;;;;;7.97;4.35;;;;;;;15.03;100.00;101501.59;2615937;36;20173;-62
2021/08/18 00:58:54;;;;;;;8.07;4.30;;;;;;;15.09;100.00;101498.31;2615736;36;20113;-63
2021/08/18 01:01:22;;;;;;;9.43;4.50;;;;;;;15.15;100.00;101504.97;2615726;36;20527;-62
2021/08/18 01:03:51;;;;;;;7.77;4.00;;;;;;;15.14;100.00;101500.56;2615252;31;20634;-63
2021/08/18 01:06:19;;;;;;;12.80;4.60;;;;;;;15.15;100.00;101502.25;2615663;31;20125;-62
2021/08/18 01:08:47;;;;;;;9.15;4.43;;;;;;;15.07;100.00;101495.75;2616550;36;20551;-62
2021/08/18 01:11:16;;;;;;;9.40;4.50;;;;;;;15.01;100.00;101501.75;2615490;36;20145;-63
2021/08/18 01:13:44;;;;;;;6.93;4.20;;;;;;;15.02;100.00;101495.34;2615727;36;20133;-62
2021/08/18 01:16:15;;;;;;;8.55;4.05;;;;;;;15.04;100.00;101496.03;2615567;36;20034;-62
2021/08/18 01:18:43;;;;;;;9.63;3.97;;;;;;;15.13;100.00;101493.44;2615858;36;20118;-62
2021/08/18 01:21:11;;;;;;;12.30;3.53;;;;;;;14.98;100.00;101487.66;2615339;36;20029;-62
2021/08/18 01:23:39;;;;;;;11.43;4.17;;;;;;;15.07;100.00;101495.75;2615251;36;20106;-62
2021/08/18 01:26:08;;;;;;;7.93;4.03;;;;;;;15.07;100.00;101494.88;2616228;31;20083;-63
2021/08/18 01:28:39;;;;;;;6.97;3.97;;;;;;;14.99;100.00;101487.50;2615426;36;20121;-62
2021/08/18 01:31:07;;;;;;;7.03;4.10;;;;;;;14.93;100.00;101495.38;2616945;36;20114;-63
2021/08/18 01:33:35;;;;;;;9.77;4.20;;;;;;;15.00;100.00;101496.50;2616662;36;20154;-62
2021/08/18 01:36:04;;;;;;;9.50;4.60;;;;;;;15.01;100.00;101496.34;2616864;36;20519;-63
2021/08/18 01:38:32;;;;;;;8.80;3.72;;;;;;;15.03;100.00;101494.34;2616319;36;20137;-63
2021/08/18 01:41:00;;;;;;;8.10;3.33;;;;;;;15.05;100.00;101497.75;2616910;36;20117;-63
2021/08/18 01:43:29;;;;;;;10.90;4.10;;;;;;;15.03;100.00;101498.91;2615758;36;20118;-63
2021/08/18 01:45:59;;;;;;;8.67;4.03;;;;;;;15.00;100.00;101494.66;2616430;36;20027;-63
2021/08/18 01:48:33;;;;;;;7.90;4.47;;;;;;;15.01;100.00;101499.03;2615818;31;20069;-63
2021/08/18 01:51:05;;;;;;;9.75;5.20;;;;;;;15.02;100.00;101500.75;2615680;36;20023;-63
2021/08/18 01:53:35;;;;;;;8.65;4.05;;;;;;;14.92;100.00;101508.09;2615859;36;20068;-63
2021/08/18 01:56:06;;;;;;;8.00;4.40;;;;;;;15.00;100.00;101510.91;2615788;36;20143;-63
2021/08/18 01:58:35;;;;;;;6.80;4.50;;;;;;;14.96;100.00;101493.25;2616189;36;20646;-62
2021/08/18 02:01:07;;;;;;;12.85;4.88;;;;;;;14.99;100.00;101509.19;2616299;36;20086;-62
2021/08/18 02:03:36;;;;;;;12.93;5.82;;;;;;;14.95;100.00;101504.22;2617024;31;20158;-63
2021/08/18 02:06:04;;;;;;;11.25;5.97;;;;;;;15.00;100.00;101500.06;2616697;31;20132;-62
2021/08/18 02:08:32;;;;;;;8.43;5.38;;;;;;;15.01;100.00;101506.34;2616083;36;20121;-63
2021/08/18 02:11:01;;;;;;;10.53;5.60;;;;;;;14.93;100.00;101504.38;2616876;36;20162;-63
2021/08/18 02:13:30;;;;;;;11.17;5.20;;;;;;;14.97;100.00;101496.78;2616610;36;20118;-62
2021/08/18 02:15:58;;;;;;;12.65;5.30;;;;;;;15.02;100.00;101502.63;2616554;36;20314;-62
2021/08/18 02:18:29;;;;;;;10.13;4.97;;;;;;;14.99;100.00;101506.50;2616759;36;20648;-62
2021/08/18 02:20:57;;;;;;;9.65;5.05;;;;;;;15.03;100.00;101496.19;2616240;36;20383;-63
2021/08/18 02:26:05;;;;;;;11.43;5.65;;;;;;;14.96;100.00;101493.25;2615327;36;20045;-63
2021/08/18 02:28:33;;;;;;;9.18;4.68;;;;;;;14.97;100.00;101488.66;2615723;36;20133;-63
2021/08/18 02:31:01;;;;;;;10.90;4.75;;;;;;;15.03;100.00;101488.94;2616108;36;20045;-63
2021/08/18 02:33:34;;;;;;;8.30;5.03;;;;;;;15.03;100.00;101491.63;2616702;36;20078;-63
2021/08/18 02:36:02;;;;;;;14.55;5.82;;;;;;;14.98;100.00;101488.50;2616497;36;20031;-62
2021/08/18 02:38:31;;;;;;;9.73;5.43;;;;;;;14.94;100.00;101489.81;2615780;36;20110;-62
2021/08/18 02:40:59;;;;;;;19.63;7.47;;;;;;;14.90;100.00;101485.72;2616092;36;20030;-62
2021/08/18 02:43:27;;;;;;;13.70;7.43;;;;;;;14.83;100.00;101487.31;2616611;36;20159;-63
2021/08/18 02:45:56;;;;;;;16.63;7.93;;;;;;;14.89;100.00;101497.53;2616076;36;20102;-63
2021/08/18 02:48:24;;;;;;;14.65;7.72;;;;;;;14.92;100.00;101502.66;2616270;36;20166;-63
2021/08/18 02:50:57;;;;;;;11.23;7.57;;;;;;;14.89;100.00;101497.53;2616067;36;20045;-63
2021/08/18 02:53:26;;;;;;;12.80;6.85;;;;;;;14.88;100.00;101494.00;2616346;36;20041;-63
2021/08/18 02:55:54;;;;;;;17.87;7.10;;;;;;;14.89;100.00;101489.41;2616658;31;20117;-63
2021/08/18 02:58:22;;;;;;;11.55;6.55;;;;;;;14.88;100.00;101502.13;2616387;36;20058;-63
2021/08/18 03:00:50;;;;;;;11.77;7.03;;;;;;;14.96;100.00;101497.78;2616078;36;20026;-63
2021/08/18 03:03:18;;;;;;;12.88;7.30;;;;;;;15.01;100.00;101501.75;2616454;36;20038;-62
2021/08/18 03:05:47;;;;;;;12.77;6.78;;;;;;;14.94;100.00;101494.38;2616954;36;20102;-63
2021/08/18 03:08:18;;;;;;;12.63;6.40;;;;;;;14.96;100.00;101493.25;2615888;36;20634;-62
2021/08/18 03:10:46;;;;;;;15.38;6.72;;;;;;;15.03;100.00;101494.34;2616457;36;20539;-63
2021/08/18 03:13:14;;;;;;;12.20;6.63;;;;;;;15.07;100.00;101490.34;2614685;31;20122;-62
2021/08/18 03:15:42;;;;;;;15.45;6.88;;;;;;;14.94;100.00;101488.97;2616074;36;20149;-62
2021/08/18 03:18:11;;;;;;;16.63;6.70;;;;;;;14.91;100.00;101490.09;2614770;36;20118;-62
2021/08/18 03:20:39;;;;;;;11.52;6.00;;;;;;;14.84;100.00;101486.28;2615253;36;20031;-62
2021/08/18 03:23:07;;;;;;;18.58;7.00;;;;;;;14.95;100.00;101485.25;2615932;36;20034;-63
2021/08/18 03:25:38;;;;;;;12.25;6.13;;;;;;;14.94;100.00;101487.09;2616215;36;20114;-62
2021/08/18 03:28:07;;;;;;;12.38;6.13;;;;;;;14.88;100.00;101487.69;2615815;36;20065;-63
2021/08/18 03:30:35;;;;;;;14.88;6.82;;;;;;;14.93;100.00;101495.38;2616576;36;20142;-62
2021/08/18 03:33:03;;;;;;;8.13;5.22;;;;;;;14.88;100.00;101490.41;2616241;36;20543;-63
2021/08/18 03:35:31;;;;;;;13.27;6.65;;;;;;;14.87;100.00;101494.13;2616758;31;20125;-63
2021/08/18 03:37:59;;;;;;;15.65;6.82;;;;;;;14.83;100.00;101499.00;2616275;36;20045;-62
2021/08/18 03:40:28;;;;;;;12.05;6.15;;;;;;;14.75;100.00;101498.88;2615135;36;20065;-62
2021/08/18 03:42:59;;;;;;;15.35;6.63;;;;;;;14.74;100.00;101490.88;2616634;36;20162;-63
2021/08/18 03:45:27;;;;;;;17.23;7.05;;;;;;;14.75;100.00;101489.88;2614874;36;20178;-62
2021/08/18 03:47:55;;;;;;;18.00;6.93;;;;;;;14.69;100.00;101489.50;2615355;36;20129;-62
2021/08/18 03:50:24;;;;;;;15.70;7.47;;;;;;;14.75;100.00;101495.31;2615405;31;21184;-63
2021/08/18 03:52:52;;;;;;;14.38;7.13;;;;;;;14.75;100.00;101495.31;2615808;36;20154;-63
2021/08/18 03:55:20;;;;;;;13.65;6.93;;;;;;;14.81;100.00;101486.56;2614977;36;20157;-63
2021/08/18 03:57:48;;;;;;;12.88;6.88;;;;;;;14.78;100.00;101486.88;2616818;36;20432;-62
2021/08/18 04:00:21;;;;;;;11.07;5.50;;;;;;;14.86;100.00;101492.41;2614984;36;20023;-62
2021/08/18 04:02:49;;;;;;;12.80;5.68;;;;;;;14.87;100.00;101494.13;2614903;36;20037;-63
2021/08/18 04:05:18;;;;;;;13.73;6.63;;;;;;;14.78;100.00;101495.88;2615106;36;20146;-62
2021/08/18 04:07:46;;;;;;;12.75;6.32;;;;;;;14.76;100.00;101491.59;2615605;36;20130;-62
2021/08/18 04:10:14;;;;;;;13.55;6.10;;;;;;;14.78;100.00;101498.59;2611582;36;20080;-62
2021/08/18 04:12:54;;;;;;;12.23;5.57;;;;;;;14.81;100.00;101492.00;2610211;36;20130;-63
2021/08/18 04:15:26;;;;;;;14.93;6.05;;;;;;;14.78;100.00;101495.00;2610662;36;20535;-62
2021/08/18 04:17:55;;;;;;;14.88;6.82;;;;;;;14.83;100.00;101496.28;2610924;36;21883;-62
2021/08/18 04:20:24;;;;;;;13.93;5.82;;;;;;;14.81;100.00;101500.13;2613152;36;20062;-62
2021/08/18 04:22:52;;;;;;;16.50;6.40;;;;;;;14.80;100.00;101498.44;2611010;36;20041;-62
2021/08/18 04:25:22;;;;;;;8.27;5.53;;;;;;;14.82;100.00;101501.84;2609643;36;20034;-63
2021/08/18 04:27:50;;;;;;;14.23;5.93;;;;;;;14.86;100.00;101497.84;2609430;36;20137;-62
2021/08/18 04:30:19;;;;;;;16.05;6.38;;;;;;;14.98;100.00;101490.38;2609912;36;20118;-62
2021/08/18 04:32:50;;;;;;;;;;;;;;;14.96;100.00;101495.06;2612798;36;20070;-63
2021/08/18 04:35:20;;;;;;;17.23;6.32;;;;;;;14.92;100.00;101496.41;2615722;36;19954;-63
2021/08/18 04:37:48;;;;;;;10.88;6.45;;;;;;;14.95;100.00;101487.97;2612830;36;20129;-63
2021/08/18 04:42:46;;;;;;;16.10;6.82;;;;;;;14.92;100.00;101489.13;2615809;36;20050;-63
2021/08/18 04:45:16;;;;;;;13.48;6.78;;;;;;;14.87;100.00;101499.56;2614918;31;20117;-63
2021/08/18 04:47:45;;;;;;;13.60;7.13;;;;;;;14.80;100.00;101495.72;2610326;36;20102;-63
2021/08/18 04:50:18;;;;;;;20.85;7.60;;;;;;;14.82;100.00;101496.44;2610264;31;20076;-63
2021/08/18 04:52:46;;;;;;;14.85;8.30;;;;;;;14.76;100.00;101495.16;2610316;36;20156;-63
2021/08/18 04:57:54;;;;;;;16.30;8.25;;;;;;;14.78;100.00;101500.44;2613220;54;20057;-63
2021/08/18 05:00:22;;;;;;;16.25;7.90;;;;;;;14.89;100.00;101500.25;2615377;36;20126;-63
2021/08/18 05:02:50;;;;;;;16.35;8.02;;;;;;;14.86;100.00;101500.56;2615339;36;20085;-62
2021/08/18 05:05:21;;;;;;;17.13;7.95;;;;;;;14.77;100.00;101496.03;2616219;36;20165;-63
2021/08/18 05:07:50;;;;;;;18.58;9.13;;;;;;;14.75;100.00;101498.03;2613993;36;20638;-62
2021/08/18 05:10:19;;;;;;;21.70;8.40;;;;;;;14.74;100.00;101504.44;2615654;36;20023;-62
2021/08/18 05:12:52;;;;;;;19.35;7.95;;;;;;;14.76;100.00;101499.75;2611702;36;20058;-63
2021/08/18 05:15:20;;;;;;;21.08;9.05;;;;;;;14.69;100.00;101497.63;2615597;36;20562;-63
2021/08/18 05:17:48;;;;;;;15.32;7.95;;;;;;;14.80;100.00;101493.03;2615159;31;20113;-63
2021/08/18 05:20:17;;;;;;;13.93;7.35;;;;;;;14.75;100.00;101489.88;2615605;36;20117;-63
2021/08/18 05:22:50;;;;;;;13.40;8.30;;;;;;;14.74;100.00;101488.16;2614584;36;20055;-63
2021/08/18 05:25:19;;;;;;;16.65;7.95;;;;;;;14.81;100.00;101489.28;2615620;36;20110;-63
2021/08/18 05:27:48;;;;;;;12.52;8.00;;;;;;;14.83;100.00;101481.88;2614461;36;20030;-63
2021/08/18 05:30:17;;;;;;;13.70;6.85;;;;;;;14.92;100.00;101480.97;2616136;36;20042;-63
2021/08/18 05:32:47;;;;;;;14.20;6.90;;;;;;;14.95;100.00;101479.84;2614985;36;20026;-63
2021/08/18 05:35:17;;;;;;;11.85;6.20;;;;;;;14.98;100.00;101476.81;2615597;36;20647;-63
2021/08/18 05:37:48;;;;;;;14.48;7.28;;;;;;;14.99;100.00;101475.81;2614414;36;20023;-63
2021/08/18 05:40:16;;;;;;;13.07;6.45;;;;;;;14.96;100.00;101476.97;2614547;36;20126;-63
2021/08/18 05:42:45;;;;;;;12.77;6.63;;;;;;;14.95;100.00;101477.13;2615471;36;20026;-63
2021/08/18 05:45:14;;;;;;;15.23;7.28;;;;;;;14.89;100.00;101479.41;2615350;36;20122;-63
2021/08/18 05:47:42;;;;;;;14.52;6.93;;;;;;;14.88;100.00;101476.84;2614837;36;20022;-63
2021/08/18 05:50:11;;;;;;;14.95;6.75;;;;;;;14.84;100.00;101487.16;2612444;31;20144;-63
2021/08/18 05:52:40;;;;;;;12.45;6.43;;;;;;;14.91;100.00;101479.25;2614638;36;20097;-63
2021/08/18 05:55:11;;;;;;;15.73;7.13;;;;;;;14.91;100.00;101479.25;2615634;36;20440;-63
2021/08/18 05:57:39;;;;;;;12.52;7.63;;;;;;;14.96;100.00;101482.41;2615302;31;20085;-63
2021/08/18 06:00:09;;;;;;;14.07;7.10;;;;;;;14.95;100.00;101485.25;2614878;36;20121;-63
2021/08/18 06:02:38;;;;;;;11.10;7.10;;;;;;;14.97;100.00;101492.25;2615645;36;20023;-63
2021/08/18 06:05:07;;;;;;;11.00;6.97;;;;;;;15.02;100.00;101483.66;2615630;36;20070;-63
2021/08/18 06:07:36;;;;;;;11.98;7.93;;;;;;;15.07;100.00;101484.91;2614895;36;20106;-63
2021/08/18 06:10:04;;;;;;;11.60;6.88;;;;;;;15.12;100.00;101494.44;2615263;36;20141;-63
2021/08/18 06:12:35;;;;;;;11.75;7.13;;;;;;;15.25;100.00;101497.66;2614574;31;20110;-63
2021/08/18 06:15:03;;;;;;;8.80;6.47;;;;;;;15.17;100.00;101486.72;2615702;36;20162;-63
2021/08/18 06:17:31;;;;;;;15.55;7.30;;;;;;;15.04;100.00;101487.91;2616056;36;20126;-63
2021/08/18 06:20:00;;;;;;;12.50;6.95;;;;;;;15.03;100.00;101494.34;2615819;36;20042;-63
2021/08/18 06:22:28;;;;;;;13.35;6.93;;;;;;;15.06;100.00;101494.03;2615991;36;20122;-63
2021/08/18 06:25:01;;;;;;;13.73;6.63;;;;;;;15.18;100.00;101500.13;2615167;31;20037;-63
2021/08/18 06:27:30;;;;;;;16.55;7.47;;;;;;;15.22;100.00;101498.81;2615665;36;20030;-63
2021/08/18 06:30:01;;;;;;;13.25;7.53;;;;;;;15.28;100.00;101496.50;2615331;36;20547;-63
2021/08/18 06:32:29;;;;;;;14.63;7.05;;;;;;;15.20;100.00;101495.38;2616146;36;20173;-63
2021/08/18 06:34:57;;;;;;;12.75;7.40;;;;;;;15.26;100.00;101496.66;2616074;31;20073;-63
2021/08/18 06:39:54;;;;;;;12.68;6.93;;;;;;;15.27;100.00;101495.66;2616481;46;20026;-63
2021/08/18 06:42:23;;;;;;;13.27;6.97;;;;;;;15.24;100.00;101495.97;2616128;36;20038;-63
2021/08/18 06:44:51;;;;;;;12.70;7.30;;;;;;;15.35;100.00;101498.44;2616499;31;20110;-62
2021/08/18 06:47:22;;;;;;;17.13;7.13;;;;;;;15.35;100.00;101506.56;2615901;36;20165;-62
2021/08/18 06:49:50;;;;;;;11.68;7.05;;;;;;;15.47;100.00;101500.94;2614518;36;20130;-62
2021/08/18 06:52:18;;;;;;;14.32;7.18;;;;;;;15.40;100.00;101501.56;2613637;31;20538;-62
2021/08/18 06:54:46;;;;;;;16.75;7.70;;;;;;;15.42;100.00;101493.28;2614658;36;20137;-63
2021/08/18 06:57:14;;;;;;;12.75;7.57;;;;;;;15.41;100.00;101491.56;2615620;36;20069;-62
2021/08/18 06:59:43;;;;;;;15.93;7.22;;;;;;;15.46;100.00;101493.81;2615256;36;20113;-62
2021/08/18 07:02:11;;;;;;;14.73;7.30;;;;;;;15.46;100.00;101499.25;2614717;36;20118;-62
2021/08/18 07:04:41;;;;;;;14.93;7.93;;;;;;;15.46;100.00;101499.25;2615604;36;20161;-62
2021/08/18 07:07:10;;;;;;;15.80;7.78;;;;;;;15.47;100.00;101493.66;2614607;31;20752;-62
2021/08/18 07:09:38;;;;;;;13.40;7.75;;;;;;;15.47;100.00;101496.38;2614599;36;20543;-62
2021/08/18 07:12:07;;;;;;;12.32;7.28;;;;;;;15.56;100.00;101503.63;2611869;31;20496;-62
2021/08/18 07:14:36;;;;;;;11.98;7.32;;;;;;;15.53;100.00;101497.63;2612594;36;20069;-62
2021/08/18 07:17:04;;;;;;;10.47;7.27;;;;;;;15.54;100.00;101499.34;2615518;36;20077;-62
2021/08/18 07:19:33;;;;;;;10.68;7.43;;;;;;;15.64;100.00;101502.00;2613296;31;20129;-63
2021/08/18 07:22:03;;;;;;;11.97;6.40;;;;;;;15.63;100.00;101498.41;2610414;36;20646;-62
2021/08/18 07:24:34;;;;;;;10.77;7.10;;;;;;;15.72;100.00;101500.22;2614401;36;20264;-62
2021/08/18 07:27:03;;;;;;;10.25;6.78;;;;;;;15.79;100.00;101494.19;2614174;36;20033;-62
2021/08/18 07:29:31;;;;;;;11.35;7.45;;;;;;;15.84;100.00;101491.84;2615849;36;20079;-62
2021/08/18 07:31:59;;;;;;;12.05;7.22;;;;;;;15.72;100.00;101493.91;2614471;36;20546;-62
2021/08/18 07:34:27;;;;;;;11.63;7.03;;;;;;;15.79;100.00;101499.63;2613978;36;20595;-62
2021/08/18 07:36:56;;;;;;;12.25;6.75;;;;;;;15.82;100.00;101505.59;2614259;36;20130;-62
2021/08/18 07:39:26;;;;;;;11.43;7.70;;;;;;;16.00;100.00;101505.56;2615109;36;20145;-62
2021/08/18 07:41:55;;;;;;;10.63;7.20;;;;;;;15.95;100.00;101499.78;2614092;36;20133;-62
2021/08/18 07:44:23;;;;;;;14.88;7.25;;;;;;;15.87;100.00;101496.97;2614146;36;20062;-62
2021/08/18 07:46:51;;;;;;;12.10;7.10;;;;;;;16.09;100.00;101501.06;2614596;36;20162;-62
2021/08/18 07:49:19;;;;;;;11.63;7.25;;;;;;;16.08;100.00;101492.09;2614932;36;20420;-62
2021/08/18 07:51:47;;;;;;;14.35;6.72;;;;;;;16.05;100.00;101489.69;2613537;36;20162;-62
2021/08/18 07:54:16;;;;;;;10.25;7.05;;;;;;;16.10;100.00;101492.78;2613148;36;20054;-64
2021/08/18 07:56:46;;;;;;;10.15;6.82;;;;;;;16.08;100.00;101488.53;2615525;36;20050;-62
2021/08/18 07:59:15;;;;;;;10.55;6.72;;;;;;;16.17;100.00;101492.16;2615391;36;20588;-62
2021/08/18 08:01:43;;;;;;;11.83;6.50;;;;;;;16.32;100.00;101490.56;2615347;31;20511;-62
2021/08/18 08:04:11;;;;;;;12.83;6.53;;;;;;;16.43;100.00;101495.75;2615854;31;20129;-62
2021/08/18 08:06:39;;;;;;;11.45;6.22;;;;;;;16.51;100.00;101489.50;2615043;36;20126;-62
2021/08/18 08:09:08;;;;;;;8.33;6.07;;;;;;;16.56;100.00;101491.75;2613449;36;20126;-62
2021/08/18 08:11:36;;;;;;;10.00;6.40;;;;;;;16.61;100.00;101483.97;2615182;36;20157;-62
2021/08/18 08:14:07;;;;;;;16.08;6.78;;;;;;;16.97;100.00;101494.72;2614347;31;20690;-62
2021/08/18 08:16:35;;;;;;;9.02;6.28;;;;;;;17.16;100.00;101486.31;2615516;36;20080;-62
2021/08/18 08:19:04;;;;;;;11.17;5.87;;;;;;;17.06;100.00;101477.44;2614798;36;20133;-63
2021/08/18 08:21:33;;;;;;;7.97;5.57;;;;;;;17.12;100.00;101473.19;2616000;36;20412;-63
2021/08/18 08:24:01;;;;;;;11.15;6.30;;;;;;;17.04;100.00;101478.63;2614711;31;20122;-62
2021/08/18 08:26:29;;;;;;;9.13;5.72;;;;;;;17.23;100.00;101475.63;2616362;31;20130;-62
2021/08/18 08:28:58;;;;;;;10.57;6.05;;;;;;;17.21;100.00;101479.53;2615562;36;20058;-62
2021/08/18 08:31:28;;;;;;;11.17;5.90;;;;;;;17.38;100.00;101473.13;2616081;36;20026;-62
2021/08/18 08:33:57;;;;;;;8.27;5.97;;;;;;;17.57;100.00;101474.69;2615262;36;20174;-62
2021/08/18 08:36:25;;;;;;;8.40;5.50;;;;;;;17.31;100.00;101472.06;2615345;36;20169;-63
2021/08/18 08:38:53;;;;;;;9.63;5.80;;;;;;;17.42;100.00;101466.34;2613993;36;20153;-63
2021/08/18 08:41:22;;;;;;;10.20;5.77;;;;;;;17.62;100.00;101474.19;2615663;36;20141;-63
2021/08/18 08:43:50;;;;;;;10.85;5.47;;;;;;;17.72;100.00;101477.63;2615481;36;20084;-62
2021/08/18 08:46:19;;;;;;;7.75;5.38;;;;;;;17.75;100.00;101482.72;2615666;31;20156;-63
2021/08/18 08:48:50;;;;;;;;;;;;;;;17.31;100.00;101485.69;2616230;36;20053;-62
2021/08/18 08:51:19;;;;;;;13.48;6.05;;;;;;;17.49;100.00;101486.44;2615283;36;20047;-63
2021/08/18 08:53:47;;;;;;;7.93;5.88;;;;;;;17.64;100.00;101480.34;2615421;36;20113;-63
2021/08/18 08:56:15;;;;;;;9.07;5.90;;;;;;;17.63;100.00;101475.91;2614254;31;20076;-63
2021/08/18 08:58:43;;;;;;;11.00;5.40;;;;;;;17.94;100.00;101480.72;2614784;36;20125;-63
2021/08/18 09:01:12;;;;;;;7.40;5.87;;;;;;;17.90;100.00;101482.09;2615460;36;20034;-63
2021/08/18 09:03:40;;;;;;;7.50;5.57;;;;;;;18.12;100.00;101484.13;2616227;36;20220;-63
2021/08/18 09:06:11;;;;;;;7.93;5.53;;;;;;;18.42;100.00;101472.69;2615639;36;20056;-63
2021/08/18 09:08:50;;;;;;;8.60;5.25;;;;;;;18.01;100.00;101466.25;2614428;36;20241;-63
2021/08/18 09:11:21;;;;;;;7.80;5.13;;;;;;;18.04;100.00;101470.53;2614642;36;20046;-63
2021/08/18 09:13:51;;;;;;;8.77;5.25;;;;;;;18.30;100.00;101474.91;2615538;36;20049;-63
2021/08/18 09:16:21;;;;;;;8.55;5.00;;;;;;;18.25;100.00;101466.44;2615331;36;20126;-63
2021/08/18 09:18:52;;;;;;;9.75;6.13;;;;;;;18.38;100.00;101469.47;2615452;36;20042;-63
2021/08/18 09:21:37;;;;;;;9.40;5.78;;;;;;;18.31;100.00;101463.84;2615860;36;20034;-63
2021/08/18 09:24:22;;;;;;;8.63;4.95;;;;;;;18.39;100.00;101463.84;2614340;36;20045;-63
2021/08/18 09:26:52;;;;;;;8.45;4.97;;;;;;;18.53;100.00;101469.59;2614917;36;20042;-63
2021/08/18 09:29:37;;;;;;;8.77;5.38;;;;;;;18.71;100.00;101462.06;2613407;36;20034;-63
2021/08/18 09:32:23;;;;;;;6.40;5.38;;;;;;;18.45;100.00;101454.13;2614349;36;20041;-63
2021/08/18 09:34:55;;;;;;;6.85;5.00;;;;;;;18.66;100.00;101469.06;2614442;36;20502;-63
2021/08/18 09:37:27;;;;;;;6.80;5.15;;;;;;;18.58;100.00;101466.34;2616412;31;20419;-63
2021/08/18 09:39:56;;;;;;;9.57;5.32;;;;;;;18.74;100.00;101460.84;2615134;31;20511;-63
2021/08/18 09:42:28;;;;;;;7.95;5.00;;;;;;;18.75;100.00;101457.09;2614253;36;20173;-63
2021/08/18 09:45:11;;;;;;;8.85;5.20;;;;;;;18.73;100.00;101449.09;2614784;31;20035;-63
2021/08/18 09:47:53;;;;;;;7.60;5.25;;;;;;;18.63;100.00;101453.06;2615401;36;20030;-62
2021/08/18 09:50:22;;;;;;;6.30;4.50;;;;;;;18.64;100.00;101447.44;2615935;36;20035;-63
2021/08/18 09:52:54;;;;;;;9.35;5.13;;;;;;;18.82;100.00;101439.03;2615852;36;20073;-63
2021/08/18 09:55:27;;;;;;;8.30;4.82;;;;;;;19.00;100.00;101444.25;2616036;36;20110;-63
2021/08/18 09:57:55;;;;;;;10.02;5.00;;;;;;;19.17;100.00;101434.13;2616599;31;20630;-62
2021/08/18 10:00:23;;;;;;;7.13;4.70;;;;;;;18.66;100.00;101448.09;2615403;36;20627;-63
2021/08/18 10:02:51;;;;;;;7.63;5.77;;;;;;;18.58;100.00;101439.97;2616020;36;22252;-62
2021/08/18 10:05:20;;;;;;;7.30;5.30;;;;;;;18.85;100.00;101435.94;2615924;36;20023;-63
2021/08/18 10:07:49;;;;;;;10.13;5.53;;;;;;;18.94;100.00;101433.22;2615063;31;20448;-63
2021/08/18 10:10:20;;;;;;;6.38;4.95;;;;;;;19.24;100.00;101432.38;2615573;36;20567;-63
2021/08/18 10:12:48;;;;;;;6.70;4.88;;;;;;;19.08;100.00;101424.28;2615917;36;20069;-62
2021/08/18 10:15:16;;;;;;;9.02;5.47;;;;;;;18.98;100.00;101423.66;2616185;36;20941;-63
2021/08/18 10:17:45;;;;;;;7.60;5.00;;;;;;;19.09;100.00;101431.44;2615763;36;20137;-63
2021/08/18 10:20:16;;;;;;;6.97;4.33;;;;;;;18.86;100.00;101420.44;2616607;31;20741;-62
2021/08/18 10:22:45;;;;;;;7.88;4.57;;;;;;;18.84;100.00;101428.78;2614548;36;20030;-62
2021/08/18 10:25:38;;;;;;;6.78;4.70;;;;;;;18.66;100.00;101434.47;2615329;36;20537;-63
2021/08/18 10:28:08;;;;;;;5.88;4.35;;;;;;;18.74;100.00;101429.00;2615661;31;20080;-62
2021/08/18 10:30:48;;;;;;;7.25;4.25;;;;;;;19.01;100.00;101424.13;2616449;36;20153;-62
2021/08/18 10:33:58;;;;;;;6.35;4.53;;;;;;;18.53;100.00;101426.00;2614698;36;20053;-63
2021/08/18 10:36:57;;;;;;;5.20;4.70;;;;;;;18.22;100.00;101421.28;2615087;36;20114;-62
2021/08/18 10:39:29;;;;;;;7.70;5.40;;;;;;;18.28;100.00;101422.47;2616121;31;20145;-62
2021/08/18 10:42:06;;;;;;;6.95;5.60;;;;;;;18.16;100.00;101427.44;2615431;36;20022;-62
2021/08/18 10:44:39;;;;;;;10.13;6.32;;;;;;;18.57;100.00;101432.81;2616108;31;20029;-63
2021/08/18 10:47:21;;;;;;;8.05;5.53;;;;;;;18.41;100.00;101433.69;2615677;31;20451;-63
2021/08/18 10:49:51;;;;;;;6.95;5.90;;;;;;;18.43;100.00;101426.19;2615007;36;20170;-62
2021/08/18 10:52:49;;;;;;;6.32;5.60;;;;;;;18.55;100.00;101429.38;2615608;36;20046;-62
2021/08/18 10:55:19;;;;;;;7.47;5.30;;;;;;;18.80;100.00;101430.19;2615110;36;20034;-62
2021/08/18 10:57:51;;;;;;;9.10;5.32;;;;;;;18.94;100.00;101427.75;2615882;36;20134;-62
2021/08/18 11:00:21;;;;;;;6.55;5.05;;;;;;;19.30;100.00;101416.31;2614170;36;20030;-62
2021/08/18 11:02:59;;;;;;;8.90;6.03;;;;;;;19.06;100.00;101410.78;2614724;36;20618;-63
2021/08/18 11:05:29;;;;;;;6.78;5.47;;;;;;;19.43;100.00;101406.50;2613782;36;20061;-63
2021/08/18 11:08:08;;;;;;;7.80;5.20;;;;;;;19.80;100.00;101414.94;2613786;36;20053;-62
2021/08/18 11:10:40;;;;;;;6.57;5.18;;;;;;;19.94;100.00;101408.66;2614733;36;20526;-62
2021/08/18 11:13:12;;;;;;;7.13;5.43;;;;;;;19.28;100.00;101402.84;2616363;36;20073;-62
2021/08/18 11:15:56;;;;;;;8.25;6.13;;;;;;;18.64;100.00;101411.13;2614327;36;20042;-62
2021/08/18 11:18:25;;;;;;;6.82;5.70;;;;;;;18.72;100.00;101409.22;2614428;36;20535;-62
2021/08/18 11:20:56;;;;;;;7.30;5.97;;;;;;;18.99;100.00;101396.19;2614734;36;20100;-63
2021/08/18 11:23:29;;;;;;;8.80;6.53;;;;;;;18.95;100.00;101397.59;2615115;36;20539;-62
2021/08/18 11:26:03;;;;;;;8.73;7.82;;;;;;;18.96;100.00;101403.88;2614827;36;20030;-62
2021/08/18 11:28:36;;;;;;;9.60;7.03;;;;;;;19.37;100.00;101395.44;2617421;31;20026;-62
2021/08/18 11:31:07;;;;;;;8.43;6.93;;;;;;;19.37;100.00;101393.56;2614738;36;20030;-62
2021/08/18 11:33:37;;;;;;;9.45;7.43;;;;;;;19.65;100.00;101390.28;2615663;36;20094;-64
2021/08/18 11:36:15;;;;;;;12.43;7.32;;;;;;;19.67;100.00;101395.56;2616156;36;20023;-63